createdAt,value
2018-12-31T12:33:23.056Z,63.70
2018-12-31T13:44:16.671Z,63.40
2018-12-31T13:47:02.454Z,63.70
2018-12-31T14:19:37.102Z,63.40
2018-12-31T14:22:05.405Z,63.50
2018-12-31T14:30:02.624Z,63.50
2018-12-31T14:38:29.595Z,63.50
2018-12-31T14:54:10.530Z,63.70
2018-12-31T15:30:02.582Z,63.60
2018-12-31T15:43:42.361Z,64.10
2018-12-31T15:46:22.506Z,65.10
2018-12-31T15:51:44.184Z,64.90
2018-12-31T15:54:11.681Z,65.10
2018-12-31T15:56:39.030Z,64.90
2018-12-31T15:59:27.822Z,65.00
2018-12-31T16:02:15.129Z,67.00
2018-12-31T16:05:02.073Z,64.60
2018-12-31T16:10:36.055Z,65.30
2018-12-31T16:13:23.187Z,64.70
2018-12-31T16:16:10.113Z,65.90
2018-12-31T16:18:57.226Z,63.90
2018-12-31T16:21:44.130Z,65.60
2018-12-31T16:24:31.071Z,63.30
2018-12-31T16:26:58.507Z,64.70
2018-12-31T16:29:25.869Z,65.90
2018-12-31T16:32:13.189Z,65.20
2018-12-31T16:35:00.143Z,63.50
2018-12-31T16:37:47.157Z,64.50
2018-12-31T16:40:34.021Z,65.70
2018-12-31T16:43:20.966Z,64.40
2018-12-31T16:46:07.866Z,65.60
2018-12-31T16:48:47.419Z,64.60
2018-12-31T16:51:27.544Z,64.40
2018-12-31T16:54:07.551Z,63.00
2018-12-31T16:56:35.060Z,64.60
2018-12-31T16:59:22.264Z,64.20
2018-12-31T17:02:09.226Z,63.60
2018-12-31T17:04:56.324Z,65.50
2018-12-31T17:07:43.413Z,65.10
2018-12-31T17:10:10.843Z,64.20
2018-12-31T17:12:59.528Z,64.00
2018-12-31T17:15:46.446Z,64.40
2018-12-31T17:18:33.426Z,64.20
2018-12-31T17:21:20.336Z,64.10
2018-12-31T17:24:07.471Z,64.00
2018-12-31T17:26:54.384Z,64.10
2018-12-31T17:29:41.438Z,63.50
2018-12-31T17:32:28.541Z,66.00
2018-12-31T17:35:15.550Z,65.10
2018-12-31T17:37:43.026Z,64.00
2018-12-31T17:40:29.929Z,64.00
2018-12-31T17:43:17.057Z,65.70
2018-12-31T17:46:04.151Z,63.80
2018-12-31T17:48:51.397Z,63.00
2018-12-31T17:51:38.281Z,64.30
2018-12-31T17:54:25.304Z,63.70
2018-12-31T17:57:12.205Z,63.70
2018-12-31T17:59:59.145Z,63.00
2018-12-31T18:02:46.456Z,62.60
2018-12-31T18:05:33.419Z,63.60
2018-12-31T18:08:20.434Z,64.60
2018-12-31T18:11:07.389Z,64.70
2018-12-31T18:13:54.655Z,63.50
2018-12-31T18:16:22.343Z,64.60
2018-12-31T18:18:50.269Z,63.60
2018-12-31T18:21:17.723Z,63.00
2018-12-31T18:26:33.529Z,65.90
2018-12-31T18:29:01.019Z,64.60
2018-12-31T18:31:48.096Z,62.80
2018-12-31T18:34:35.213Z,62.70
2018-12-31T18:37:02.590Z,63.10
2018-12-31T18:39:29.991Z,62.70
2018-12-31T18:42:18.761Z,64.70
2018-12-31T18:45:05.723Z,65.40
2018-12-31T18:47:52.665Z,66.00
2018-12-31T18:50:20.087Z,64.60
2018-12-31T18:52:48.959Z,62.90
2018-12-31T18:55:16.970Z,62.70
2018-12-31T18:58:04.125Z,62.70
2018-12-31T19:00:51.029Z,62.60
2018-12-31T19:03:37.935Z,62.70
2018-12-31T19:06:25.105Z,64.10
2018-12-31T19:09:12.291Z,63.30
2018-12-31T19:11:59.220Z,62.70
2018-12-31T19:14:46.387Z,63.30
2018-12-31T19:17:33.223Z,64.10
2018-12-31T19:20:20.140Z,63.40
2018-12-31T19:23:07.105Z,63.20
2018-12-31T19:25:34.665Z,63.00
2018-12-31T19:28:02.130Z,64.20
2018-12-31T19:30:49.040Z,62.30
2018-12-31T19:36:03.369Z,63.50
2018-12-31T19:38:52.357Z,62.70
2018-12-31T19:41:39.309Z,62.80
2018-12-31T19:44:26.068Z,62.70
2018-12-31T19:47:12.964Z,62.70
2018-12-31T19:49:53.145Z,61.90
2018-12-31T19:52:33.826Z,62.00
2018-12-31T19:55:01.338Z,62.00
2018-12-31T19:57:48.236Z,62.00
2018-12-31T20:00:15.723Z,62.80
2018-12-31T20:03:02.645Z,64.10
2018-12-31T20:05:29.976Z,63.50
2018-12-31T20:11:05.652Z,61.90
2018-12-31T20:13:52.586Z,61.30
2018-12-31T20:16:39.950Z,62.70
2018-12-31T20:19:26.827Z,64.40
2018-12-31T20:21:54.181Z,61.80
2018-12-31T20:24:41.109Z,61.70
2018-12-31T20:27:28.065Z,61.70
2018-12-31T20:30:15.215Z,61.60
2018-12-31T20:33:02.146Z,61.50
2018-12-31T20:38:37.104Z,61.40
2018-12-31T20:41:24.036Z,61.30
2018-12-31T20:44:10.945Z,61.30
2018-12-31T20:46:58.283Z,61.20
2018-12-31T20:49:37.982Z,61.80
2018-12-31T20:52:17.950Z,61.10
2018-12-31T20:54:57.866Z,61.10
2018-12-31T20:57:37.945Z,61.00
2018-12-31T21:00:17.771Z,61.20
2018-12-31T21:02:45.707Z,61.00
2018-12-31T21:05:32.598Z,60.90
2018-12-31T21:08:19.512Z,61.60
2018-12-31T21:11:06.389Z,62.10
2018-12-31T21:13:53.303Z,62.60
2018-12-31T21:16:20.846Z,62.70
2018-12-31T21:19:07.777Z,60.80
2018-12-31T21:21:35.211Z,60.20
2018-12-31T21:24:02.940Z,60.90
2018-12-31T21:26:49.820Z,60.90
2018-12-31T21:29:36.773Z,60.70
2018-12-31T21:32:23.730Z,60.20
2018-12-31T21:35:10.718Z,62.10
2018-12-31T21:37:41.190Z,61.00
2018-12-31T21:40:12.681Z,60.80
2018-12-31T21:42:40.544Z,60.80
2018-12-31T21:45:27.757Z,60.70
2018-12-31T21:48:16.671Z,61.80
2018-12-31T21:50:57.513Z,61.80
2018-12-31T21:53:37.143Z,63.50
2018-12-31T21:56:17.450Z,61.30
2018-12-31T21:58:57.675Z,62.10
2018-12-31T22:01:37.542Z,60.50
2018-12-31T22:04:09.104Z,60.40
2018-12-31T22:06:56.108Z,60.40
2018-12-31T22:09:43.434Z,60.50
2018-12-31T22:12:10.950Z,60.30
2018-12-31T22:14:58.030Z,60.90
2018-12-31T22:17:45.200Z,63.20
2018-12-31T22:20:12.777Z,60.30
2018-12-31T22:22:59.734Z,60.70
2018-12-31T22:25:49.326Z,59.30
2018-12-31T22:31:05.900Z,60.20
2018-12-31T22:33:33.357Z,60.20
2018-12-31T22:36:00.831Z,60.20
2018-12-31T22:38:28.285Z,60.70
2018-12-31T22:41:15.564Z,60.30
2018-12-31T22:44:02.557Z,61.00
2018-12-31T22:46:49.631Z,60.20
2018-12-31T22:49:29.601Z,61.00
2018-12-31T22:51:56.985Z,60.20
2018-12-31T22:54:43.909Z,60.70
2018-12-31T22:57:11.293Z,61.60
2018-12-31T22:59:38.822Z,60.40
2018-12-31T23:02:26.016Z,60.90
2018-12-31T23:05:13.704Z,60.40
2018-12-31T23:08:00.753Z,60.60
2018-12-31T23:10:47.696Z,61.80
2018-12-31T23:13:35.963Z,61.10
2018-12-31T23:16:24.001Z,62.20
2018-12-31T23:19:11.069Z,59.60
2018-12-31T23:21:58.015Z,61.80
2018-12-31T23:24:45.126Z,62.10
2018-12-31T23:27:32.230Z,62.50
2018-12-31T23:30:19.026Z,60.20
2018-12-31T23:33:05.897Z,61.30
2018-12-31T23:35:52.819Z,61.00
2018-12-31T23:38:40.384Z,62.10
2018-12-31T23:41:27.421Z,59.70
2018-12-31T23:44:14.335Z,61.60
2018-12-31T23:47:01.302Z,60.80
2018-12-31T23:49:41.678Z,61.90
2018-12-31T23:54:51.368Z,61.00
2018-12-31T23:57:18.949Z,60.30
2018-12-31T23:59:46.628Z,60.30
